Time;durP1;ratioP1;P1;durP2;ratioP2;P2;SDS_P1;SDS_P2;PMS_P1;PMS_P2;Temp;Humidity;BMP_temperature;BMP_pressure;BME280_temperature;BME280_humidity;BME280_pressure;Samples;Min_cycle;Max_cycle;Signal;HPM_P1;HPM_P2
2022/01/03 00:01:33;;;;;;;6.35;1.70;;;8.60;99.90;;;;;;5079765;28;20126;-90
2022/01/03 00:03:58;;;;;;;11.98;2.15;;;8.60;99.90;;;;;;5096597;28;20051;-88
2022/01/03 00:06:24;;;;;;;10.65;2.97;;;9.10;99.90;;;;;;5093623;28;20085;-91
2022/01/03 00:08:50;;;;;;;14.73;3.47;;;8.70;99.90;;;;;;5079165;28;20051;-90
2022/01/03 00:11:20;;;;;;;9.73;2.95;;;8.70;99.90;;;;;;5078148;28;20566;-90
2022/01/03 00:13:47;;;;;;;12.70;3.10;;;8.80;99.90;;;;;;5129803;27;20479;-91
2022/01/03 00:16:12;;;;;;;10.13;2.53;;;8.80;99.90;;;;;;5055994;28;20054;-92
2022/01/03 00:18:38;;;;;;;11.23;3.30;;;8.90;99.90;;;;;;5079074;28;20040;-91
2022/01/03 00:21:07;;;;;;;9.93;3.00;;;9.00;99.90;;;;;;5078161;28;20047;-91
2022/01/03 00:23:33;;;;;;;15.57;3.60;;;9.20;99.90;;;;;;5078670;28;20044;-92
2022/01/03 00:26:00;;;;;;;17.70;4.32;;;9.10;99.90;;;;;;5110307;28;20058;-88
2022/01/03 00:28:32;;;;;;;16.67;2.83;;;9.10;99.90;;;;;;5078632;28;20057;-91
2022/01/03 00:30:58;;;;;;;11.00;2.70;;;9.20;99.90;;;;;;5095224;28;20265;-88
2022/01/03 00:33:24;;;;;;;11.48;2.75;;;9.20;99.90;;;;;;5093222;28;20145;-91
2022/01/03 00:35:53;;;;;;;18.95;3.08;;;9.20;99.90;;;;;;5085331;28;20051;-90
2022/01/03 00:38:19;;;;;;;13.23;3.10;;;9.20;99.90;;;;;;5096430;28;20051;-93
2022/01/03 00:40:45;;;;;;;23.17;3.67;;;9.30;99.90;;;;;;5095232;28;20062;-91
2022/01/03 00:43:10;;;;;;;14.70;2.75;;;9.20;99.90;;;;;;5075097;28;20040;-90
2022/01/03 00:45:36;;;;;;;13.65;3.08;;;9.30;99.90;;;;;;5075006;28;20048;-91
2022/01/03 00:48:06;;;;;;;17.95;2.92;;;9.30;99.90;;;;;;5074487;28;20044;-88
2022/01/03 00:50:32;;;;;;;15.38;2.90;;;9.40;99.90;;;;;;5074571;28;20063;-94
2022/01/03 00:52:58;;;;;;;18.92;2.88;;;9.50;99.90;;;;;;5058063;28;20488;-93
2022/01/03 00:55:23;;;;;;;22.58;3.35;;;9.50;99.90;;;;;;5104732;28;20047;-92
2022/01/03 00:58:01;;;;;;;10.13;2.38;;;9.50;99.90;;;;;;5091494;28;20048;-91
2022/01/03 01:00:27;;;;;;;18.92;3.05;;;9.50;99.90;;;;;;5090758;28;20043;-91
2022/01/03 01:03:03;;;;;;;17.48;3.25;;;9.50;99.90;;;;;;5091609;28;20507;-93
2022/01/03 01:05:29;;;;;;;17.48;4.38;;;9.50;99.90;;;;;;5074373;28;20056;-91
2022/01/03 01:07:56;;;;;;;16.80;3.90;;;9.60;99.90;;;;;;5091372;28;20050;-92
2022/01/03 01:10:26;;;;;;;22.25;3.65;;;9.50;99.90;;;;;;5090875;28;20142;-92
2022/01/03 01:12:52;;;;;;;18.92;3.50;;;9.50;99.90;;;;;;5091238;28;20052;-93
2022/01/03 01:15:18;;;;;;;20.02;3.67;;;9.60;99.90;;;;;;5095607;28;20123;-93
2022/01/03 01:17:45;;;;;;;20.80;3.70;;;9.60;99.90;;;;;;5108681;28;20136;-94
2022/01/03 01:20:14;;;;;;;18.05;3.33;;;9.70;99.90;;;;;;5057374;28;20089;-91
2022/01/03 01:22:43;;;;;;;18.20;3.40;;;9.50;99.90;;;;;;5091317;28;20056;-92
2022/01/03 01:27:48;;;;;;;28.65;3.95;;;9.60;99.90;;;;;;5074991;28;20055;-93
2022/01/03 01:30:18;;;;;;;17.02;2.97;;;9.60;99.90;;;;;;5090729;28;20052;-93
2022/01/03 01:32:48;;;;;;;21.27;4.68;;;9.60;99.90;;;;;;5074108;28;20048;-92
2022/01/03 01:35:14;;;;;;;24.85;4.00;;;9.50;99.90;;;;;;5057835;28;20060;-94
2022/01/03 01:37:40;;;;;;;25.77;3.65;;;9.50;99.90;;;;;;5094773;28;20171;-90
2022/01/03 01:40:06;;;;;;;21.10;3.58;;;9.40;99.90;;;;;;5077425;28;20062;-92
2022/01/03 01:42:32;;;;;;;24.92;4.07;;;9.40;99.90;;;;;;5110880;28;20054;-92
2022/01/03 01:44:59;;;;;;;25.42;4.53;;;9.50;99.90;;;;;;5078293;28;20550;-94
2022/01/03 01:47:25;;;;;;;25.73;4.18;;;9.50;99.90;;;;;;5079332;28;20123;-94
2022/01/03 01:49:50;;;;;;;23.38;3.60;;;9.50;99.90;;;;;;5079943;28;20102;-93
2022/01/03 01:52:21;;;;;;;25.88;3.47;;;9.50;99.90;;;;;;5073581;28;20690;-94
2022/01/03 01:54:56;;;;;;;23.92;4.75;;;9.60;99.90;;;;;;5108383;28;20044;-90
2022/01/03 01:57:24;;;;;;;19.83;5.13;;;9.60;99.90;;;;;;5096310;28;20097;-92
2022/01/03 02:00:11;;;;;;;21.25;4.40;;;9.70;99.90;;;;;;5057146;28;20051;-93
2022/01/03 02:02:41;;;;;;;25.70;4.35;;;9.60;99.90;;;;;;5066420;28;20124;-93
2022/01/03 02:05:18;;;;;;;21.83;4.07;;;9.60;99.90;;;;;;5095055;28;20082;-94
2022/01/03 02:08:00;;;;;;;28.25;4.72;;;9.70;99.90;;;;;;5111018;28;20475;-93
2022/01/03 02:10:30;;;;;;;20.02;3.53;;;9.60;99.90;;;;;;5094065;28;20619;-91
2022/01/03 02:12:55;;;;;;;23.02;3.55;;;9.80;99.90;;;;;;5078123;28;20081;-93
2022/01/03 02:15:21;;;;;;;26.98;3.90;;;9.70;99.90;;;;;;5093488;28;20047;-92
2022/01/03 02:17:48;;;;;;;23.38;3.70;;;9.70;99.90;;;;;;5094002;28;20139;-93
2022/01/03 02:20:14;;;;;;;17.95;4.30;;;9.70;99.90;;;;;;5093607;28;20047;-94
2022/01/03 02:22:41;;;;;;;29.13;3.70;;;9.70;99.90;;;;;;5094053;28;20130;-93
2022/01/03 02:25:07;;;;;;;27.52;4.50;;;9.70;99.90;;;;;;5077531;28;20044;-91
2022/01/03 02:27:33;;;;;;;23.90;3.08;;;9.70;99.90;;;;;;5076528;28;20069;-91
2022/01/03 02:29:59;;;;;;;25.20;4.20;;;9.70;99.90;;;;;;5110548;28;20043;-92
2022/01/03 02:32:25;;;;;;;18.13;3.67;;;9.80;99.90;;;;;;5059675;28;20081;-92
2022/01/03 02:34:50;;;;;;;24.52;4.07;;;9.70;99.90;;;;;;5060256;28;20403;-92
2022/01/03 02:37:16;;;;;;;26.45;4.22;;;9.80;99.90;;;;;;5110728;28;20048;-89
2022/01/03 02:39:43;;;;;;;27.38;4.25;;;9.70;99.90;;;;;;5093289;28;20048;-91
2022/01/03 02:42:08;;;;;;;28.40;4.60;;;9.70;99.90;;;;;;5079597;28;20079;-89
2022/01/03 02:44:34;;;;;;;21.48;3.90;;;9.70;99.90;;;;;;5137798;28;20052;-89
2022/01/03 02:47:00;;;;;;;19.90;3.65;;;9.70;99.90;;;;;;5100671;28;20391;-93
2022/01/03 02:49:26;;;;;;;19.85;3.47;;;9.80;99.90;;;;;;5114162;28;20039;-94
2022/01/03 02:51:51;;;;;;;29.50;5.30;;;9.70;99.90;;;;;;5082175;28;20054;-93
2022/01/03 02:54:17;;;;;;;29.25;4.15;;;9.60;99.90;;;;;;5099726;28;20101;-94
2022/01/03 02:56:43;;;;;;;26.42;4.80;;;9.70;99.90;;;;;;5098410;28;20122;-93
2022/01/03 02:59:16;;;;;;;18.52;3.38;;;9.70;99.90;;;;;;5082322;28;20040;-93
2022/01/03 03:01:45;;;;;;;28.33;4.38;;;9.70;99.90;;;;;;5114508;28;20651;-93
2022/01/03 03:04:10;;;;;;;19.17;3.38;;;9.70;99.90;;;;;;5098259;28;20089;-93
2022/01/03 03:06:36;;;;;;;23.38;3.40;;;9.60;99.90;;;;;;5080038;28;20040;-93
2022/01/03 03:09:06;;;;;;;22.27;4.05;;;9.70;99.90;;;;;;5097829;28;20047;-93
2022/01/03 03:11:33;;;;;;;23.98;4.28;;;9.70;99.90;;;;;;5097458;28;20078;-94
2022/01/03 03:13:58;;;;;;;20.02;5.18;;;9.70;99.90;;;;;;5081094;28;20408;-92
2022/01/03 03:16:25;;;;;;;22.20;3.88;;;9.60;99.90;;;;;;5131290;27;20055;-90
2022/01/03 03:18:51;;;;;;;29.73;4.20;;;9.90;99.90;;;;;;5131709;27;20051;-94
2022/01/03 03:21:16;;;;;;;24.83;4.97;;;9.50;99.90;;;;;;5132657;27;20134;-95
2022/01/03 03:23:42;;;;;;;22.85;3.47;;;9.50;99.90;;;;;;5095476;28;20555;-93
2022/01/03 03:26:09;;;;;;;29.85;4.40;;;9.60;99.90;;;;;;5079663;28;20039;-93
2022/01/03 03:28:35;;;;;;;27.63;4.75;;;9.70;99.90;;;;;;5097219;28;20051;-92
2022/01/03 03:31:01;;;;;;;28.00;5.30;;;9.60;99.90;;;;;;5097070;28;20047;-94
2022/01/03 03:33:29;;;;;;;23.83;5.03;;;9.60;99.90;;;;;;5079994;28;20047;-90
2022/01/03 03:35:55;;;;;;;22.75;4.47;;;9.60;99.90;;;;;;5064645;28;20047;-94
2022/01/03 03:38:25;;;;;;;25.58;3.60;;;9.50;99.90;;;;;;5113671;28;20054;-93
2022/01/03 03:40:51;;;;;;;20.27;3.97;;;9.40;99.90;;;;;;5064401;28;20074;-93
2022/01/03 03:43:17;;;;;;;19.73;3.80;;;9.40;99.90;;;;;;5079567;28;20099;-92
2022/01/03 03:45:43;;;;;;;31.83;4.65;;;9.40;99.90;;;;;;5079952;28;20140;-94
2022/01/03 03:48:09;;;;;;;29.50;4.20;;;9.40;99.90;;;;;;5079944;28;20483;-93
2022/01/03 03:50:35;;;;;;;24.30;4.57;;;9.30;99.90;;;;;;5096133;28;20194;-92
2022/01/03 03:53:00;;;;;;;24.17;3.70;;;9.40;99.90;;;;;;5079828;28;20062;-92
2022/01/03 03:55:27;;;;;;;31.77;4.45;;;9.40;99.90;;;;;;5063647;28;20094;-92
2022/01/03 03:57:53;;;;;;;32.05;4.50;;;9.30;99.90;;;;;;5097360;28;20077;-93
2022/01/03 04:00:19;;;;;;;28.33;4.53;;;9.40;99.90;;;;;;5097794;28;20043;-92
2022/01/03 04:02:45;;;;;;;26.50;4.60;;;9.30;99.90;;;;;;5062991;28;20047;-93
2022/01/03 04:05:11;;;;;;;28.52;4.15;;;9.30;99.90;;;;;;5080009;28;20055;-93
2022/01/03 04:07:37;;;;;;;26.10;4.82;;;9.30;99.90;;;;;;5079490;28;20163;-92
2022/01/03 04:10:06;;;;;;;33.05;5.90;;;9.30;99.90;;;;;;5080562;28;20052;-94
2022/01/03 04:12:32;;;;;;;33.58;5.18;;;9.20;99.90;;;;;;5080546;28;20044;-92
2022/01/03 04:14:58;;;;;;;19.30;3.17;;;9.30;99.90;;;;;;5096860;28;20388;-93
2022/01/03 04:17:23;;;;;;;23.40;4.82;;;9.40;99.90;;;;;;5097056;28;20055;-93
2022/01/03 04:19:49;;;;;;;33.55;5.10;;;9.40;99.90;;;;;;5081587;28;20052;-92
2022/01/03 04:22:15;;;;;;;29.10;4.20;;;9.40;99.90;;;;;;5118830;28;20055;-93
2022/01/03 04:24:40;;;;;;;25.92;4.15;;;9.40;99.90;;;;;;5098295;28;20051;-93
2022/01/03 04:27:06;;;;;;;26.60;3.92;;;9.50;99.90;;;;;;5129006;28;20044;-90
2022/01/03 04:29:32;;;;;;;22.52;4.22;;;9.50;99.90;;;;;;5109257;28;20084;-90
2022/01/03 04:31:57;;;;;;;30.20;4.45;;;9.50;99.90;;;;;;5112713;28;20047;-94
2022/01/03 04:34:23;;;;;;;25.00;5.22;;;9.50;99.90;;;;;;5112637;28;20059;-93
2022/01/03 04:36:49;;;;;;;25.73;3.95;;;9.50;99.90;;;;;;5095749;28;20036;-95
2022/01/03 04:39:14;;;;;;;18.65;4.68;;;9.50;99.90;;;;;;5079285;28;20605;-95
2022/01/03 04:41:40;;;;;;;25.17;4.32;;;9.50;99.90;;;;;;5095527;28;20051;-93
2022/01/03 04:44:07;;;;;;;19.45;3.70;;;9.50;99.90;;;;;;5113374;28;20050;-93
2022/01/03 04:46:33;;;;;;;29.25;4.45;;;9.50;99.90;;;;;;5079078;28;20051;-92
2022/01/03 04:48:59;;;;;;;24.55;4.50;;;9.40;99.90;;;;;;5096058;28;20051;-92
2022/01/03 04:51:25;;;;;;;26.98;4.97;;;9.50;99.90;;;;;;5062191;28;20055;-93
2022/01/03 04:53:50;;;;;;;30.38;4.10;;;9.50;99.90;;;;;;5112384;28;20051;-93
2022/01/03 04:56:16;;;;;;;28.77;4.70;;;9.50;99.90;;;;;;5095967;28;20040;-94
2022/01/03 04:58:42;;;;;;;29.83;5.22;;;9.60;99.90;;;;;;5078016;28;20074;-92
2022/01/03 05:01:08;;;;;;;34.00;6.38;;;9.50;99.90;;;;;;5081801;28;20403;-93
2022/01/03 05:03:34;;;;;;;33.40;5.60;;;9.60;99.90;;;;;;5096173;28;20024;-90
2022/01/03 05:06:01;;;;;;;31.35;3.97;;;9.70;99.90;;;;;;5069953;28;20047;-93
2022/01/03 05:08:28;;;;;;;24.73;4.85;;;9.60;99.90;;;;;;5060488;28;20153;-91
2022/01/03 05:10:53;;;;;;;28.52;5.70;;;9.60;99.90;;;;;;5098455;28;20052;-92
2022/01/03 05:13:19;;;;;;;31.63;5.60;;;9.60;99.90;;;;;;5082608;28;20141;-90
2022/01/03 05:15:45;;;;;;;28.55;4.38;;;9.60;99.90;;;;;;5080009;28;20044;-90
2022/01/03 05:18:10;;;;;;;27.67;4.75;;;9.60;99.90;;;;;;5115686;28;20796;-91
2022/01/03 05:20:36;;;;;;;24.48;4.88;;;9.50;99.90;;;;;;5079836;28;20056;-93
2022/01/03 05:23:02;;;;;;;34.25;5.47;;;9.60;99.90;;;;;;5075016;28;20047;-92
2022/01/03 05:25:27;;;;;;;37.83;6.32;;;9.50;99.90;;;;;;5092231;28;20131;-94
2022/01/03 05:27:54;;;;;;;31.65;5.07;;;9.60;99.90;;;;;;5128370;27;20742;-94
2022/01/03 05:30:20;;;;;;;32.75;5.03;;;9.60;99.90;;;;;;5096527;28;20059;-93
2022/01/03 05:32:46;;;;;;;31.02;4.70;;;9.60;99.90;;;;;;5062449;28;20043;-95
2022/01/03 05:35:12;;;;;;;28.02;4.65;;;9.60;99.90;;;;;;5078695;28;20146;-94
2022/01/03 05:37:37;;;;;;;32.63;5.13;;;9.80;99.90;;;;;;5094752;28;20490;-94
2022/01/03 05:40:04;;;;;;;33.00;4.95;;;9.70;99.90;;;;;;5077641;28;20066;-93
2022/01/03 05:42:30;;;;;;;25.58;6.50;;;9.60;99.90;;;;;;5128993;27;20093;-93
2022/01/03 05:44:57;;;;;;;32.20;4.70;;;9.70;99.90;;;;;;5094168;28;20071;-92
2022/01/03 05:47:23;;;;;;;35.67;6.10;;;9.80;99.90;;;;;;5094352;28;20044;-92
2022/01/03 05:49:59;;;;;;;29.17;5.05;;;9.80;99.90;;;;;;5094932;28;20055;-92
2022/01/03 05:52:34;;;;;;;30.92;5.45;;;9.50;99.90;;;;;;5066284;28;20070;-91
2022/01/03 05:54:59;;;;;;;36.30;5.85;;;9.60;99.90;;;;;;5110450;28;20487;-92
2022/01/03 05:57:25;;;;;;;32.28;5.45;;;9.60;99.90;;;;;;5093915;28;20487;-90
2022/01/03 05:59:51;;;;;;;30.33;5.35;;;9.50;99.90;;;;;;5093631;28;20192;-91
2022/01/03 06:02:17;;;;;;;21.30;4.22;;;9.50;99.90;;;;;;5110935;28;20040;-91
2022/01/03 06:07:17;;;;;;;;;;;9.60;99.90;;;;;;5095733;28;20053;-93
2022/01/03 06:09:42;;;;;;;31.55;5.38;;;9.60;99.90;;;;;;5093986;28;19924;-90
2022/01/03 06:12:08;;;;;;;24.17;5.03;;;9.50;99.90;;;;;;5093626;28;20043;-92
2022/01/03 06:14:34;;;;;;;38.78;5.80;;;9.60;99.90;;;;;;5060448;28;20051;-91
2022/01/03 06:17:00;;;;;;;40.83;5.45;;;9.60;99.90;;;;;;5073016;28;20115;-94
2022/01/03 06:19:26;;;;;;;32.10;5.65;;;9.50;99.90;;;;;;5073653;28;20048;-90
2022/01/03 06:21:52;;;;;;;28.42;5.80;;;9.50;99.90;;;;;;5089516;28;20044;-91
2022/01/03 06:24:18;;;;;;;33.65;5.45;;;9.50;99.90;;;;;;5074128;28;20059;-90
2022/01/03 06:26:44;;;;;;;36.10;5.47;;;9.50;99.90;;;;;;5110694;28;20091;-91
2022/01/03 06:29:10;;;;;;;31.13;5.95;;;9.60;99.90;;;;;;5060357;28;20237;-94
2022/01/03 06:31:36;;;;;;;28.10;5.80;;;9.60;99.90;;;;;;5094623;28;20043;-94
2022/01/03 06:34:01;;;;;;;35.50;5.63;;;9.60;99.90;;;;;;5110821;28;20108;-94
2022/01/03 06:36:27;;;;;;;35.08;5.47;;;9.50;99.90;;;;;;5094641;28;20083;-93
2022/01/03 06:38:54;;;;;;;33.38;5.03;;;9.40;99.90;;;;;;5093585;28;20043;-95
2022/01/03 06:41:20;;;;;;;34.72;6.38;;;9.50;99.90;;;;;;5078198;28;20535;-93
2022/01/03 06:43:45;;;;;;;32.58;5.88;;;9.50;99.90;;;;;;5077949;28;20111;-93
2022/01/03 06:46:11;;;;;;;33.58;5.72;;;9.40;99.90;;;;;;5094783;28;20112;-94
2022/01/03 06:48:37;;;;;;;38.45;5.95;;;9.50;99.90;;;;;;5094812;28;20052;-93
2022/01/03 06:51:02;;;;;;;31.42;4.65;;;9.40;99.90;;;;;;5086848;28;20099;-90
2022/01/03 06:53:28;;;;;;;30.15;4.95;;;9.50;99.90;;;;;;5091717;28;20040;-92
2022/01/03 06:55:54;;;;;;;36.13;5.65;;;9.60;99.90;;;;;;5091657;28;20136;-88
2022/01/03 06:58:19;;;;;;;29.33;4.88;;;9.50;99.90;;;;;;5092981;28;20489;-93
2022/01/03 07:00:45;;;;;;;34.00;5.20;;;9.60;99.90;;;;;;5078864;28;20118;-92
2022/01/03 07:03:11;;;;;;;27.17;4.82;;;9.50;99.90;;;;;;5093893;28;20044;-93
2022/01/03 07:05:36;;;;;;;38.13;5.22;;;9.60;99.90;;;;;;5119754;28;20103;-92
2022/01/03 07:08:02;;;;;;;31.77;5.82;;;9.70;99.90;;;;;;5087247;28;20048;-92
2022/01/03 07:10:28;;;;;;;32.60;5.65;;;9.70;99.90;;;;;;5081691;28;20036;-90
2022/01/03 07:12:54;;;;;;;35.47;5.53;;;9.80;99.90;;;;;;5104841;28;20044;-90
2022/01/03 07:20:49;;;;;;;;;;;9.70;99.90;;;;;;5111622;28;20074;-93
2022/01/03 07:23:14;;;;;;;35.65;5.70;;;9.60;99.90;;;;;;5067350;28;19928;-92
2022/01/03 07:25:40;;;;;;;33.92;6.10;;;9.80;99.90;;;;;;5101086;28;20087;-92
2022/01/03 07:28:06;;;;;;;39.65;5.60;;;9.80;99.90;;;;;;5084072;28;20040;-92
2022/01/03 07:30:32;;;;;;;31.42;5.53;;;9.70;99.90;;;;;;5083061;28;20043;-93
2022/01/03 07:32:58;;;;;;;33.10;5.60;;;9.60;99.90;;;;;;5087010;28;20044;-88
2022/01/03 07:35:23;;;;;;;26.80;5.32;;;9.60;99.90;;;;;;5099292;28;20028;-90
2022/01/03 07:37:50;;;;;;;31.05;5.38;;;9.70;99.90;;;;;;5094901;28;20108;-93
2022/01/03 07:40:15;;;;;;;36.03;6.60;;;9.60;99.90;;;;;;5082688;28;20046;-91
2022/01/03 07:42:42;;;;;;;34.60;5.63;;;9.60;99.90;;;;;;5115192;28;20122;-93
2022/01/03 07:45:09;;;;;;;33.25;5.75;;;9.60;99.90;;;;;;5081069;28;20047;-92
2022/01/03 07:47:35;;;;;;;34.22;6.30;;;9.40;99.90;;;;;;5097935;28;20548;-92
2022/01/03 07:50:01;;;;;;;31.73;5.18;;;9.60;99.90;;;;;;5097876;27;20047;-88
2022/01/03 07:52:26;;;;;;;31.60;4.03;;;9.60;99.90;;;;;;5102071;28;20052;-92
2022/01/03 07:54:52;;;;;;;31.90;5.07;;;9.70;99.90;;;;;;5130416;27;20027;-90
2022/01/03 07:57:19;;;;;;;40.72;5.60;;;9.70;99.90;;;;;;5096617;28;20047;-90
2022/01/03 07:59:45;;;;;;;32.00;5.45;;;9.60;99.90;;;;;;5117287;28;20043;-90
2022/01/03 08:02:11;;;;;;;32.00;6.50;;;9.50;99.90;;;;;;5099170;28;20072;-89
2022/01/03 08:04:37;;;;;;;38.08;5.90;;;9.60;99.90;;;;;;5096988;28;20175;-90
2022/01/03 08:07:03;;;;;;;29.83;4.78;;;9.70;99.90;;;;;;5128101;28;20505;-87
2022/01/03 08:09:29;;;;;;;28.23;4.82;;;9.50;99.90;;;;;;5128678;28;20036;-92
2022/01/03 08:11:55;;;;;;;33.53;5.13;;;9.50;99.90;;;;;;5096724;28;20060;-91
2022/01/03 08:14:20;;;;;;;34.78;5.97;;;9.60;99.90;;;;;;5109773;28;20059;-92
2022/01/03 08:16:46;;;;;;;33.47;4.70;;;9.60;99.90;;;;;;5106735;28;20101;-90
2022/01/03 08:19:12;;;;;;;40.90;7.18;;;9.70;99.90;;;;;;5122755;28;20069;-89
2022/01/03 08:21:37;;;;;;;33.78;5.35;;;9.70;99.90;;;;;;5085996;28;20055;-92
2022/01/03 08:24:04;;;;;;;32.30;4.68;;;9.70;99.90;;;;;;5077410;28;20044;-90
2022/01/03 08:26:30;;;;;;;31.50;5.30;;;9.80;99.90;;;;;;5075993;28;20036;-93
2022/01/03 08:28:55;;;;;;;27.77;4.55;;;9.80;99.90;;;;;;5091966;28;20047;-90
2022/01/03 08:31:24;;;;;;;31.05;4.95;;;9.90;99.90;;;;;;5093906;28;20140;-90
2022/01/03 08:33:50;;;;;;;34.03;5.43;;;10.00;99.90;;;;;;5115450;28;20304;-92
2022/01/03 08:36:16;;;;;;;36.17;5.68;;;10.00;99.90;;;;;;5116319;28;20035;-88
2022/01/03 08:38:41;;;;;;;35.00;5.25;;;10.00;99.90;;;;;;5133633;28;20048;-91
2022/01/03 08:41:08;;;;;;;29.25;5.07;;;9.90;99.90;;;;;;5080540;28;20042;-88
2022/01/03 08:43:33;;;;;;;29.58;4.32;;;9.80;99.90;;;;;;5095731;28;20055;-93
2022/01/03 08:45:59;;;;;;;29.02;4.80;;;10.00;99.90;;;;;;5097024;28;20054;-91
2022/01/03 08:48:25;;;;;;;25.23;4.57;;;10.20;99.90;;;;;;5076009;28;20125;-92
2022/01/03 08:50:50;;;;;;;30.05;4.75;;;10.10;99.90;;;;;;5093336;28;20080;-90
2022/01/03 08:53:17;;;;;;;23.45;3.50;;;10.00;99.90;;;;;;5114898;28;20036;-91
2022/01/03 08:55:42;;;;;;;28.38;5.60;;;10.10;99.90;;;;;;5095957;28;20109;-91
2022/01/03 08:58:08;;;;;;;27.05;4.45;;;10.10;99.90;;;;;;5112753;28;20044;-90
2022/01/03 09:00:34;;;;;;;30.02;5.43;;;10.00;99.90;;;;;;5068489;28;20090;-93
2022/01/03 09:03:00;;;;;;;26.15;4.72;;;10.00;99.90;;;;;;5075514;28;20055;-93
2022/01/03 09:05:25;;;;;;;29.33;4.40;;;10.00;99.90;;;;;;5089663;28;20063;-94
2022/01/03 09:07:51;;;;;;;32.33;4.45;;;10.10;99.90;;;;;;5108969;28;20101;-94
2022/01/03 09:10:17;;;;;;;25.80;4.78;;;10.20;99.90;;;;;;5091565;28;20188;-94
2022/01/03 09:12:43;;;;;;;35.42;6.70;;;10.20;99.90;;;;;;5075251;28;20109;-93
2022/01/03 09:15:09;;;;;;;27.80;6.03;;;10.20;99.90;;;;;;5105169;28;20043;-92
2022/01/03 09:17:35;;;;;;;27.45;5.05;;;10.10;99.90;;;;;;5078193;28;20388;-92
2022/01/03 09:20:00;;;;;;;28.98;4.15;;;10.10;99.90;;;;;;5095296;28;20050;-92
2022/01/03 09:22:33;;;;;;;25.05;4.13;;;10.10;99.90;;;;;;5077833;28;20456;-92
2022/01/03 09:30:11;;;;;;;35.20;5.50;;;10.30;99.90;;;;;;5063016;28;20063;-92
2022/01/03 09:32:37;;;;;;;29.05;4.82;;;10.30;99.90;;;;;;5091242;28;20048;-91
2022/01/03 09:35:04;;;;;;;24.23;5.47;;;10.30;99.90;;;;;;5059045;28;20059;-91
2022/01/03 09:37:29;;;;;;;34.88;5.20;;;10.50;99.90;;;;;;5083047;28;20055;-91
2022/01/03 09:39:55;;;;;;;23.02;4.40;;;10.30;99.90;;;;;;5110332;28;20028;-90
2022/01/03 09:42:28;;;;;;;13.00;3.05;;;10.40;99.90;;;;;;5091853;28;20445;-92
2022/01/03 09:44:53;;;;;;;24.45;4.55;;;10.40;99.90;;;;;;5074883;28;20048;-90
2022/01/03 09:47:19;;;;;;;33.47;5.00;;;10.50;99.90;;;;;;5060305;28;20051;-92
2022/01/03 09:49:45;;;;;;;25.55;4.78;;;10.50;99.90;;;;;;5122943;27;20513;-91
2022/01/03 09:52:11;;;;;;;25.02;4.45;;;10.50;99.90;;;;;;5062048;28;20059;-90
2022/01/03 09:54:37;;;;;;;26.33;4.97;;;10.40;99.90;;;;;;5077735;28;20035;-92
2022/01/03 09:57:04;;;;;;;28.80;4.43;;;10.40;99.90;;;;;;5061596;28;20083;-93
2022/01/03 09:59:30;;;;;;;30.42;4.70;;;10.40;99.90;;;;;;5077994;28;20384;-92
2022/01/03 10:01:56;;;;;;;23.02;4.00;;;10.40;99.90;;;;;;5095567;28;20104;-92
2022/01/03 10:04:22;;;;;;;26.80;4.90;;;10.30;99.90;;;;;;5075127;28;20094;-94
2022/01/03 10:06:48;;;;;;;32.22;5.47;;;10.40;99.90;;;;;;5094375;28;20036;-94
2022/01/03 10:09:13;;;;;;;25.67;5.53;;;10.30;99.90;;;;;;5077333;28;20134;-94
2022/01/03 10:11:39;;;;;;;28.10;4.38;;;10.40;99.90;;;;;;5060115;28;20035;-93
2022/01/03 10:14:04;;;;;;;25.20;4.82;;;10.40;99.90;;;;;;5077667;28;20104;-94
2022/01/03 10:16:30;;;;;;;25.52;4.25;;;10.20;99.90;;;;;;5076679;28;20048;-90
2022/01/03 10:18:57;;;;;;;28.25;4.78;;;10.40;99.90;;;;;;5093735;28;20054;-90
2022/01/03 10:21:52;;;;;;;29.90;5.35;;;10.40;99.90;;;;;;5060202;28;20047;-91
2022/01/03 10:24:19;;;;;;;25.80;4.22;;;10.40;99.90;;;;;;5089855;28;20059;-92
2022/01/03 10:26:54;;;;;;;20.73;4.03;;;10.40;99.90;;;;;;5079313;28;20118;-91
2022/01/03 10:29:27;;;;;;;29.75;4.75;;;10.50;99.90;;;;;;5071116;28;20042;-93
2022/01/03 10:31:55;;;;;;;20.90;5.65;;;10.40;99.90;;;;;;5076205;28;20076;-92
2022/01/03 10:34:23;;;;;;;27.88;5.22;;;10.60;99.90;;;;;;5095341;28;20043;-94
2022/01/03 10:36:49;;;;;;;25.33;4.60;;;10.40;99.90;;;;;;5094751;28;20088;-93
2022/01/03 10:39:19;;;;;;;25.88;4.35;;;10.30;99.90;;;;;;5093670;28;20051;-88
2022/01/03 10:41:46;;;;;;;26.30;5.40;;;10.40;99.90;;;;;;5076807;28;20056;-93
2022/01/03 10:44:28;;;;;;;28.23;4.43;;;10.40;99.90;;;;;;5061396;28;20044;-94
2022/01/03 10:46:53;;;;;;;28.67;6.60;;;10.50;99.90;;;;;;5079700;28;20059;-94
2022/01/03 10:49:20;;;;;;;20.25;4.95;;;10.40;99.90;;;;;;5094150;28;20700;-94
2022/01/03 10:51:47;;;;;;;27.52;4.40;;;10.40;99.90;;;;;;5093236;28;20047;-91
2022/01/03 10:54:17;;;;;;;26.63;4.32;;;10.50;99.90;;;;;;5094378;28;20056;-92
2022/01/03 10:56:44;;;;;;;31.35;5.32;;;10.40;99.90;;;;;;5077188;28;20044;-93
2022/01/03 10:59:18;;;;;;;27.50;4.50;;;10.40;99.90;;;;;;5094995;28;20101;-92
2022/01/03 11:01:46;;;;;;;26.42;4.50;;;10.60;99.90;;;;;;5094356;28;20525;-93
2022/01/03 11:04:24;;;;;;;30.25;4.30;;;10.60;99.90;;;;;;5060623;28;20055;-91
2022/01/03 11:13:18;;;;;;;32.17;4.10;;;10.50;99.90;;;;;;5113481;27;20055;-93
2022/01/03 11:15:55;;;;;;;26.65;4.90;;;10.60;99.90;;;;;;5112241;28;20127;-91
2022/01/03 11:18:28;;;;;;;26.70;4.43;;;10.70;99.90;;;;;;5081046;28;20578;-90
2022/01/03 11:21:16;;;;;;;28.10;4.70;;;10.80;99.90;;;;;;5081434;28;20097;-92
2022/01/03 11:24:01;;;;;;;22.90;3.95;;;10.70;99.90;;;;;;5096465;28;20062;-88
2022/01/03 11:26:28;;;;;;;19.67;3.72;;;10.70;99.90;;;;;;5081178;28;20060;-90
2022/01/03 11:28:54;;;;;;;20.13;3.40;;;10.70;99.90;;;;;;5115019;28;20047;-90
2022/01/03 11:31:20;;;;;;;22.45;4.22;;;10.70;99.90;;;;;;5080585;28;20491;-91
2022/01/03 11:33:48;;;;;;;23.13;4.30;;;10.70;99.90;;;;;;5079420;28;20046;-92
2022/01/03 11:36:16;;;;;;;23.63;4.22;;;10.70;99.90;;;;;;5080903;28;20083;-91
2022/01/03 11:38:41;;;;;;;26.80;4.55;;;10.70;99.90;;;;;;5080462;28;20044;-88
2022/01/03 11:41:09;;;;;;;24.38;3.65;;;10.80;99.90;;;;;;5080674;28;20512;-89
2022/01/03 11:43:35;;;;;;;22.35;4.30;;;10.80;99.90;;;;;;5084820;28;20471;-92
2022/01/03 11:46:01;;;;;;;23.77;4.13;;;10.70;99.90;;;;;;5113965;28;20047;-89
2022/01/03 11:48:28;;;;;;;19.73;4.28;;;10.70;99.90;;;;;;5119991;28;20030;-91
2022/01/03 11:51:11;;;;;;;26.02;4.90;;;10.80;99.90;;;;;;5097445;28;20093;-92
2022/01/03 11:53:47;;;;;;;21.65;4.18;;;10.70;99.90;;;;;;5079666;28;20526;-90
2022/01/03 11:56:20;;;;;;;28.65;4.70;;;10.90;99.90;;;;;;5065751;28;20077;-91
2022/01/03 12:04:33;;;;;;;;;;;10.80;99.90;;;;;;5105650;28;20103;-91
2022/01/03 12:07:13;;;;;;;26.88;4.35;;;10.80;99.90;;;;;;5121410;28;20443;-91
2022/01/03 12:09:47;;;;;;;21.45;3.65;;;10.70;99.90;;;;;;5067337;28;20051;-90
2022/01/03 12:12:27;;;;;;;;;;;10.90;99.90;;;;;;5131525;27;20055;-87
2022/01/03 12:14:56;;;;;;;21.30;3.80;;;10.90;99.90;;;;;;5094405;28;19924;-80
2022/01/03 12:17:23;;;;;;;21.10;2.60;;;11.00;99.90;;;;;;5094729;28;20139;-82
2022/01/03 12:19:49;;;;;;;22.52;3.38;;;11.00;99.90;;;;;;5112699;28;20407;-87
2022/01/03 12:22:23;;;;;;;26.48;3.75;;;11.10;99.90;;;;;;5077454;28;20044;-88
2022/01/03 12:25:02;;;;;;;23.90;3.67;;;11.00;99.90;;;;;;5082332;28;20121;-89
2022/01/03 12:27:29;;;;;;;26.23;4.47;;;11.00;99.90;;;;;;5078782;28;20143;-91
2022/01/03 12:29:55;;;;;;;24.63;4.40;;;11.00;99.90;;;;;;5113153;27;20268;-88
2022/01/03 12:32:25;;;;;;;21.27;3.90;;;10.90;99.90;;;;;;5092264;28;20547;-88
2022/01/03 12:35:24;;;;;;;25.38;4.15;;;11.00;99.90;;;;;;5091559;28;20093;-90
2022/01/03 12:37:50;;;;;;;21.73;4.85;;;10.90;99.90;;;;;;5091815;28;20456;-88
2022/01/03 12:40:18;;;;;;;24.17;4.25;;;11.00;99.90;;;;;;5092996;28;20123;-87
2022/01/03 12:42:53;;;;;;;25.70;4.10;;;10.90;99.90;;;;;;5129498;27;20104;-86
2022/01/03 12:45:34;;;;;;;21.05;4.18;;;11.10;99.90;;;;;;5112294;28;20054;-87
2022/01/03 12:48:14;;;;;;;21.50;4.22;;;11.00;99.90;;;;;;5111716;28;20471;-87
2022/01/03 12:50:53;;;;;;;21.05;3.47;;;11.00;99.90;;;;;;5112043;28;20445;-87
2022/01/03 12:53:28;;;;;;;22.25;3.88;;;11.00;99.90;;;;;;5079743;28;20056;-88
2022/01/03 12:56:05;;;;;;;16.58;3.10;;;11.00;99.90;;;;;;5111463;28;20059;-88
2022/01/03 12:58:32;;;;;;;28.90;5.07;;;11.20;99.90;;;;;;5095502;28;20060;-88
2022/01/03 13:01:04;;;;;;;20.15;3.60;;;11.10;99.90;;;;;;5111802;28;20442;-90
2022/01/03 13:03:39;;;;;;;22.85;4.32;;;11.10;99.90;;;;;;5096249;28;20059;-90
2022/01/03 13:06:11;;;;;;;22.30;5.20;;;11.00;99.90;;;;;;5095923;28;20191;-90
2022/01/03 13:08:43;;;;;;;17.63;3.80;;;11.10;99.90;;;;;;5119518;27;20078;-89
2022/01/03 13:11:10;;;;;;;32.03;5.15;;;11.20;99.90;;;;;;5091934;28;20468;-89
2022/01/03 13:13:36;;;;;;;30.90;5.45;;;11.10;99.90;;;;;;5074326;28;20148;-90
2022/01/03 13:16:27;;;;;;;23.55;4.50;;;11.10;99.90;;;;;;5057707;28;20058;-90